Time,TemperatureF,DewpointF,PressureIn,WindDirection,WindDirectionDegrees,WindSpeedMPH,WindSpeedGustMPH,Humidity,HourlyPrecipIn,Conditions,Clouds,dailyrainin,SoftwareType,DateUTC
2013-04-01 00:00:00,51.8,51.0,29.86,NW,311,0.0,1.0,97,0.00,,OVC065,0.27,VWS V14.01,2013-04-01 04:00:00,
2013-04-01 00:07:00,52.1,51.3,29.86,NNW,338,0.0,0.0,97,0.00,,OVC065,0.00,VWS V14.01,2013-04-01 04:07:00,
2013-04-01 00:12:00,52.1,51.3,29.86,NNW,333,0.0,0.0,97,0.00,,OVC065,0.00,VWS V14.01,2013-04-01 04:12:00,
2013-04-01 00:17:00,52.1,51.3,29.86,NNW,333,1.0,1.0,97,0.00,,OVC065,0.00,VWS V14.01,2013-04-01 04:17:00,
2013-04-01 00:22:00,52.1,51.3,29.86,NNW,333,0.0,0.0,97,0.00,,OVC065,0.00,VWS V14.01,2013-04-01 04:22:00,
2013-04-01 00:27:00,52.4,51.8,29.86,SW,232,0.0,1.0,98,0.00,,OVC065,0.00,VWS V14.01,2013-04-01 04:27:00,
2013-04-01 00:32:00,52.5,52.0,29.86,SW,232,0.0,0.0,98,0.00,,OVC065,0.00,VWS V14.01,2013-04-01 04:32:00,
2013-04-01 00:37:00,52.8,52.2,29.86,SW,232,1.0,1.0,98,0.00,,OVC065,0.00,VWS V14.01,2013-04-01 04:37:00,
2013-04-01 00:42:00,53.0,52.5,29.86,SW,222,1.0,1.0,98,0.00,,OVC050,0.00,VWS V14.01,2013-04-01 04:42:00,
2013-04-01 00:47:00,53.0,52.5,29.86,SW,222,0.0,0.0,98,0.00,,OVC050,0.00,VWS V14.01,2013-04-01 04:47:00,
2013-04-01 00:52:00,52.8,52.0,29.86,SW,223,0.0,1.0,97,0.00,,OVC050,0.00,VWS V14.01,2013-04-01 04:52:00,
2013-04-01 00:57:00,52.8,52.0,29.86,SW,222,0.0,0.0,97,0.00,,OVC050,0.00,VWS V14.01,2013-04-01 04:57:00,
2013-04-01 01:02:00,52.8,52.0,29.86,SW,222,0.0,0.0,97,0.00,,OVC090,0.00,VWS V14.01,2013-04-01 05:02:00,
2013-04-01 01:07:00,52.7,51.9,29.85,SW,222,0.0,0.0,97,0.00,,OVC090,0.00,VWS V14.01,2013-04-01 05:07:00,
2013-04-01 01:12:00,52.6,51.8,29.86,SW,222,1.0,1.0,97,0.00,,OVC090,0.00,VWS V14.01,2013-04-01 05:12:00,
2013-04-01 01:17:00,52.8,52.2,29.86,SW,228,1.0,1.0,98,0.00,,OVC090,0.00,VWS V14.01,2013-04-01 05:17:00,
2013-04-01 01:22:00,52.9,52.3,29.86,SW,229,0.0,0.0,98,0.00,,OVC100,0.00,VWS V14.01,2013-04-01 05:22:00,
2013-04-01 01:27:00,52.9,52.3,29.86,South,169,1.0,1.0,98,0.00,,OVC100,0.00,VWS V14.01,2013-04-01 05:27:00,
2013-04-01 01:32:00,52.7,51.9,29.86,South,170,0.0,1.0,97,0.00,,OVC100,0.00,VWS V14.01,2013-04-01 05:32:00,
2013-04-01 01:37:00,52.6,51.8,29.86,South,170,0.0,0.0,97,0.00,,OVC100,0.00,VWS V14.01,2013-04-01 05:37:00,
2013-04-01 01:42:00,52.1,51.0,29.86,South,171,0.0,0.0,96,0.00,,OVC100,0.00,VWS V14.01,2013-04-01 05:42:00,
2013-04-01 01:54:00,51.9,51.1,29.86,North,0,0.0,0.0,97,0.00,,OVC100,0.00,VWS V14.01,2013-04-01 05:54:00,
2013-04-01 01:59:00,51.8,51.0,29.86,South,170,0.0,0.0,97,0.00,,OVC060,0.00,VWS V14.01,2013-04-01 05:59:00,
2013-04-01 02:04:00,51.9,51.1,29.86,South,170,0.0,0.0,97,0.00,,OVC060,0.00,VWS V14.01,2013-04-01 06:04:00,
2013-04-01 02:09:00,51.8,51.0,29.86,South,170,0.0,0.0,97,0.00,,OVC060,0.00,VWS V14.01,2013-04-01 06:09:00,
2013-04-01 02:14:00,51.8,51.0,29.86,South,170,0.0,0.0,97,0.00,,OVC060,0.00,VWS V14.01,2013-04-01 06:14:00,
2013-04-01 02:19:00,51.8,51.3,29.87,South,170,0.0,0.0,98,0.00,,OVC100,0.00,VWS V14.01,2013-04-01 06:19:00,
2013-04-01 02:24:00,51.7,50.9,29.87,South,170,0.0,0.0,97,0.00,,OVC100,0.00,VWS V14.01,2013-04-01 06:24:00,
2013-04-01 02:29:00,51.4,50.6,29.87,South,170,0.0,0.0,97,0.00,,OVC100,0.00,VWS V14.01,2013-04-01 06:29:00,
2013-04-01 02:34:00,50.9,50.1,29.86,NNE,32,0.0,1.0,97,0.00,,OVC100,0.00,VWS V14.01,2013-04-01 06:34:00,
2013-04-01 02:40:00,50.7,49.9,29.86,NNE,33,0.0,0.0,97,0.00,,OVC110,0.00,VWS V14.01,2013-04-01 06:40:00,
2013-04-01 02:45:00,51.0,50.5,29.86,NNE,30,0.0,1.0,98,0.00,,OVC110,0.00,VWS V14.01,2013-04-01 06:45:00,
2013-04-01 02:49:00,51.2,50.7,29.86,NNE,30,0.0,0.0,98,0.00,,OVC110,0.00,VWS V14.01,2013-04-01 06:49:00,
2013-04-01 02:54:00,51.2,50.7,29.86,NNE,30,0.0,0.0,98,0.00,,OVC110,0.00,VWS V14.01,2013-04-01 06:54:00,
2013-04-01 02:59:00,51.3,50.8,29.86,NNE,30,0.0,0.0,98,0.00,,BKN100,0.00,VWS V14.01,2013-04-01 06:59:00,
2013-04-01 03:04:00,51.2,50.7,29.86,NNE,30,0.0,0.0,98,0.00,,BKN100,0.00,VWS V14.01,2013-04-01 07:04:00,
2013-04-01 03:09:00,50.8,50.0,29.86,NNE,30,0.0,0.0,97,0.00,,BKN100,0.00,VWS V14.01,2013-04-01 07:09:00,
2013-04-01 03:15:00,50.6,50.1,29.86,NNE,30,1.0,1.0,98,0.00,,BKN100,0.00,VWS V14.01,2013-04-01 07:15:00,
2013-04-01 03:20:00,50.4,49.9,29.86,NNE,30,0.0,0.0,98,0.00,,OVC100,0.00,VWS V14.01,2013-04-01 07:20:00,
2013-04-01 03:25:00,50.2,49.7,29.86,SE,131,1.0,1.0,98,0.00,,OVC100,0.00,VWS V14.01,2013-04-01 07:25:00,
2013-04-01 03:30:00,49.8,49.0,29.86,SE,131,0.0,0.0,97,0.00,,OVC100,0.00,VWS V14.01,2013-04-01 07:30:00,
2013-04-01 03:35:00,49.5,48.7,29.86,SE,131,0.0,1.0,97,0.00,,OVC100,0.00,VWS V14.01,2013-04-01 07:35:00,
2013-04-01 03:40:00,49.5,49.0,29.86,SE,131,0.0,0.0,98,0.00,,BKN100,0.00,VWS V14.01,2013-04-01 07:40:00,
2013-04-01 03:45:00,49.2,48.7,29.86,SE,131,0.0,0.0,98,0.00,,BKN100,0.00,VWS V14.01,2013-04-01 07:45:00,
2013-04-01 03:50:00,48.9,48.4,29.86,SE,131,0.0,0.0,98,0.00,,BKN100,0.00,VWS V14.01,2013-04-01 07:50:00,
2013-04-01 03:55:00,48.7,48.2,29.86,SE,131,0.0,0.0,98,0.00,,BKN100,0.00,VWS V14.01,2013-04-01 07:55:00,
2013-04-01 04:00:00,47.9,47.1,29.86,SE,129,0.0,0.0,97,0.00,,CLR,0.00,VWS V14.01,2013-04-01 08:00:00,
2013-04-01 04:05:00,47.5,46.7,29.87,SE,129,1.0,1.0,97,0.00,,CLR,0.00,VWS V14.01,2013-04-01 08:05:00,
2013-04-01 04:10:00,47.5,47.0,29.87,SE,131,1.0,1.0,98,0.00,,CLR,0.00,VWS V14.01,2013-04-01 08:10:00,
2013-04-01 04:15:00,47.3,46.8,29.87,WNW,295,0.0,1.0,98,0.00,,CLR,0.00,VWS V14.01,2013-04-01 08:15:00,
2013-04-01 04:20:00,47.5,47.0,29.86,WSW,241,1.0,1.0,98,0.00,,CLR,0.00,VWS V14.01,2013-04-01 08:20:00,
2013-04-01 04:25:00,47.0,46.5,29.86,SW,235,0.0,0.0,98,0.00,,CLR,0.00,VWS V14.01,2013-04-01 08:25:00,
2013-04-01 04:30:00,47.2,46.7,29.86,SW,235,0.0,0.0,98,0.00,,CLR,0.00,VWS V14.01,2013-04-01 08:30:00,
2013-04-01 04:35:00,47.0,46.5,29.86,SW,222,0.0,0.0,98,0.00,,CLR,0.00,VWS V14.01,2013-04-01 08:35:00,
2013-04-01 04:40:00,46.8,46.3,29.86,SSW,212,0.0,1.0,98,0.00,,CLR,0.00,VWS V14.01,2013-04-01 08:40:00,
2013-04-01 04:45:00,46.7,46.2,29.86,SW,229,0.0,0.0,98,0.00,,CLR,0.00,VWS V14.01,2013-04-01 08:45:00,
2013-04-01 04:50:00,46.2,45.7,29.86,SW,229,0.0,0.0,98,0.00,,CLR,0.00,VWS V14.01,2013-04-01 08:50:00,
2013-04-01 04:55:00,45.7,44.9,29.86,SSW,197,0.0,1.0,97,0.00,,CLR,0.00,VWS V14.01,2013-04-01 08:55:00,
2013-04-01 05:00:00,45.2,44.4,29.86,SSW,197,0.0,0.0,97,0.00,,,0.00,VWS V14.01,2013-04-01 09:00:00,
2013-04-01 05:05:00,44.9,44.4,29.86,SSW,197,0.0,0.0,98,0.00,,,0.00,VWS V14.01,2013-04-01 09:05:00,
2013-04-01 05:10:00,44.7,44.2,29.87,SSW,197,0.0,0.0,98,0.00,,,0.00,VWS V14.01,2013-04-01 09:10:00,
2013-04-01 05:15:00,44.6,44.1,29.87,SW,219,0.0,1.0,98,0.00,,,0.00,VWS V14.01,2013-04-01 09:15:00,
2013-04-01 05:20:00,44.5,44.0,29.87,SW,219,0.0,0.0,98,0.00,,CLR,0.00,VWS V14.01,2013-04-01 09:20:00,
2013-04-01 05:25:00,44.5,44.0,29.87,NW,325,0.0,0.0,98,0.00,,CLR,0.00,VWS V14.01,2013-04-01 09:25:00,
2013-04-01 05:30:00,44.1,43.6,29.87,North,360,1.0,1.0,98,0.00,,CLR,0.00,VWS V14.01,2013-04-01 09:30:00,
2013-04-01 05:35:00,43.3,42.5,29.87,North,360,0.0,0.0,97,0.00,,CLR,0.00,VWS V14.01,2013-04-01 09:35:00,
2013-04-01 05:40:00,42.9,42.1,29.87,North,360,0.0,0.0,97,0.00,,CLR,0.00,VWS V14.01,2013-04-01 09:40:00,
2013-04-01 05:45:00,42.9,42.1,29.88,North,360,0.0,0.0,97,0.00,,CLR,0.00,VWS V14.01,2013-04-01 09:45:00,
2013-04-01 05:50:00,43.0,42.5,29.88,North,360,0.0,0.0,98,0.00,,CLR,0.00,VWS V14.01,2013-04-01 09:50:00,
2013-04-01 05:55:00,43.2,42.7,29.88,SW,228,0.0,0.0,98,0.00,,CLR,0.00,VWS V14.01,2013-04-01 09:55:00,
2013-04-01 06:00:00,42.8,42.3,29.88,SW,229,0.0,1.0,98,0.00,,CLR,0.00,VWS V14.01,2013-04-01 10:00:00,
2013-04-01 06:05:00,43.1,42.6,29.88,NW,308,1.0,2.0,98,0.00,,CLR,0.00,VWS V14.01,2013-04-01 10:05:00,
2013-04-01 06:10:00,42.9,42.1,29.88,NW,319,2.0,2.0,97,0.00,,CLR,0.00,VWS V14.01,2013-04-01 10:10:00,
2013-04-01 06:15:00,43.2,42.1,29.88,NNW,333,1.0,1.0,96,0.00,,CLR,0.00,VWS V14.01,2013-04-01 10:15:00,
2013-04-01 06:20:00,43.0,41.7,29.88,SW,217,0.0,1.0,95,0.00,,CLR,0.00,VWS V14.01,2013-04-01 10:20:00,
2013-04-01 06:25:00,42.4,41.1,29.88,SSE,156,4.0,4.0,95,0.00,,CLR,0.00,VWS V14.01,2013-04-01 10:25:00,
2013-04-01 06:30:00,42.1,41.0,29.89,SSE,155,2.0,3.0,96,0.00,,CLR,0.00,VWS V14.01,2013-04-01 10:30:00,
2013-04-01 06:35:00,42.5,41.7,29.89,SSE,163,2.0,2.0,97,0.00,,CLR,0.00,VWS V14.01,2013-04-01 10:35:00,
2013-04-01 06:40:00,42.9,42.1,29.89,SSE,158,2.0,4.0,97,0.00,,CLR,0.00,VWS V14.01,2013-04-01 10:40:00,
2013-04-01 06:45:00,43.5,42.4,29.90,ESE,107,0.0,4.0,96,0.00,,CLR,0.00,VWS V14.01,2013-04-01 10:45:00,
2013-04-01 06:50:00,43.7,41.8,29.90,ENE,60,0.0,1.0,93,0.00,,CLR,0.00,VWS V14.01,2013-04-01 10:50:00,
2013-04-01 06:55:00,43.1,41.5,29.90,North,353,0.0,1.0,94,0.00,,CLR,0.00,VWS V14.01,2013-04-01 10:55:00,
2013-04-01 07:00:00,43.1,41.8,29.90,WNW,302,2.0,3.0,95,0.00,,CLR,0.00,VWS V14.01,2013-04-01 11:00:00,
2013-04-01 07:05:00,42.8,41.2,29.91,WNW,284,0.0,0.0,94,0.00,,CLR,0.00,VWS V14.01,2013-04-01 11:05:00,
2013-04-01 07:10:00,42.7,41.1,29.91,NNW,327,2.0,2.0,94,0.00,,CLR,0.00,VWS V14.01,2013-04-01 11:10:00,
2013-04-01 07:15:00,42.4,40.8,29.91,WNW,295,0.0,0.0,94,0.00,,CLR,0.00,VWS V14.01,2013-04-01 11:15:00,
2013-04-01 07:20:00,42.0,40.7,29.91,SW,236,0.0,0.0,95,0.00,,CLR,0.00,VWS V14.01,2013-04-01 11:20:00,
2013-04-01 07:25:00,41.2,39.9,29.91,SSE,158,1.0,2.0,95,0.00,,CLR,0.00,VWS V14.01,2013-04-01 11:25:00,
2013-04-01 07:30:00,40.9,39.8,29.92,SE,139,0.0,0.0,96,0.00,,CLR,0.00,VWS V14.01,2013-04-01 11:30:00,
2013-04-01 07:35:00,41.0,40.2,29.92,SSE,156,0.0,1.0,97,0.00,,CLR,0.00,VWS V14.01,2013-04-01 11:35:00,
2013-04-01 07:40:00,41.5,41.0,29.93,SW,226,0.0,0.0,98,0.00,,CLR,0.00,VWS V14.01,2013-04-01 11:40:00,
2013-04-01 07:45:00,42.1,41.6,29.93,SW,226,0.0,0.0,98,0.00,,CLR,0.00,VWS V14.01,2013-04-01 11:45:00,
2013-04-01 07:50:00,42.7,41.9,29.93,SW,226,0.0,1.0,97,0.00,,CLR,0.00,VWS V14.01,2013-04-01 11:50:00,
2013-04-01 07:55:00,43.3,42.5,29.93,SW,226,0.0,0.0,97,0.00,,CLR,0.00,VWS V14.01,2013-04-01 11:55:00,
2013-04-01 08:00:00,44.1,43.0,29.93,SW,226,0.0,0.0,96,0.00,,CLR,0.00,VWS V14.01,2013-04-01 12:00:00,
2013-04-01 08:05:00,44.6,43.0,29.93,SW,227,0.0,0.0,94,0.00,,CLR,0.00,VWS V14.01,2013-04-01 12:05:00,
2013-04-01 08:10:00,45.3,44.0,29.93,SW,226,0.0,0.0,95,0.00,,CLR,0.00,VWS V14.01,2013-04-01 12:10:00,
2013-04-01 08:15:00,45.8,44.2,29.93,SW,226,0.0,0.0,94,0.00,,CLR,0.00,VWS V14.01,2013-04-01 12:15:00,
2013-04-01 08:20:00,47.1,45.5,29.93,SW,229,0.0,1.0,94,0.00,,CLR,0.00,VWS V14.01,2013-04-01 12:20:00,
2013-04-01 08:25:00,47.9,46.0,29.93,SW,229,0.0,0.0,93,0.00,,CLR,0.00,VWS V14.01,2013-04-01 12:25:00,
2013-04-01 08:30:00,48.4,46.5,29.93,SW,229,0.0,0.0,93,0.00,,CLR,0.00,VWS V14.01,2013-04-01 12:30:00,
2013-04-01 08:35:00,48.5,46.0,29.93,SW,229,0.0,1.0,91,0.00,,CLR,0.00,VWS V14.01,2013-04-01 12:35:00,
2013-04-01 08:40:00,49.3,47.1,29.93,SW,226,0.0,1.0,92,0.00,,CLR,0.00,VWS V14.01,2013-04-01 12:40:00,
2013-04-01 08:45:00,50.7,47.6,29.93,SSE,149,1.0,1.0,89,0.00,,CLR,0.00,VWS V14.01,2013-04-01 12:45:00,
2013-04-01 08:50:00,51.8,48.4,29.93,South,174,0.0,0.0,88,0.00,,CLR,0.00,VWS V14.01,2013-04-01 12:50:00,
2013-04-01 08:55:00,52.5,48.1,29.93,East,96,0.0,1.0,85,0.00,,CLR,0.00,VWS V14.01,2013-04-01 12:55:00,
2013-04-01 09:00:00,53.0,48.3,29.93,NE,34,0.0,1.0,84,0.00,,CLR,0.00,VWS V14.01,2013-04-01 13:00:00,
2013-04-01 09:05:00,53.6,47.6,29.93,NW,312,1.0,1.0,80,0.00,,CLR,0.00,VWS V14.01,2013-04-01 13:05:00,
2013-04-01 09:10:00,53.8,45.7,29.93,NW,323,2.0,3.0,74,0.00,,CLR,0.00,VWS V14.01,2013-04-01 13:10:00,
2013-04-01 09:15:00,54.0,44.8,29.93,WNW,298,2.0,4.0,71,0.00,,CLR,0.00,VWS V14.01,2013-04-01 13:15:00,
2013-04-01 09:20:00,54.9,46.1,29.93,NW,314,1.0,2.0,72,0.00,,CLR,0.00,VWS V14.01,2013-04-01 13:20:00,
2013-04-01 09:25:00,55.6,46.4,29.93,NW,308,2.0,3.0,71,0.00,,CLR,0.00,VWS V14.01,2013-04-01 13:25:00,
2013-04-01 09:30:00,56.4,46.0,29.93,WNW,290,1.0,1.0,68,0.00,,CLR,0.00,VWS V14.01,2013-04-01 13:30:00,
2013-04-01 09:35:00,57.3,46.8,29.93,NNW,330,0.0,1.0,68,0.00,,CLR,0.00,VWS V14.01,2013-04-01 13:35:00,
2013-04-01 09:40:00,57.9,45.8,29.92,WNW,294,0.0,1.0,64,0.00,,CLR,0.00,VWS V14.01,2013-04-01 13:40:00,
2013-04-01 09:45:00,58.6,45.2,29.93,SW,227,1.0,1.0,61,0.00,,CLR,0.00,VWS V14.01,2013-04-01 13:45:00,
2013-04-01 09:50:00,58.9,45.5,29.93,WNW,284,1.0,2.0,61,0.00,,CLR,0.00,VWS V14.01,2013-04-01 13:50:00,
2013-04-01 09:55:00,59.5,45.6,29.93,WSW,245,2.0,3.0,60,0.00,,CLR,0.00,VWS V14.01,2013-04-01 13:55:00,
2013-04-01 10:00:00,59.6,44.8,29.93,WNW,287,0.0,3.0,58,0.00,,CLR,0.00,VWS V14.01,2013-04-01 14:00:00,
2013-04-01 10:05:00,60.4,44.2,29.93,West,276,1.0,4.0,55,0.00,,CLR,0.00,VWS V14.01,2013-04-01 14:05:00,
2013-04-01 10:10:00,60.7,42.5,29.93,WNW,290,3.0,4.0,51,0.00,,CLR,0.00,VWS V14.01,2013-04-01 14:10:00,
2013-04-01 10:15:00,61.1,42.3,29.93,NW,316,5.0,5.0,50,0.00,,CLR,0.00,VWS V14.01,2013-04-01 14:15:00,
2013-04-01 10:20:00,60.4,41.2,29.93,WNW,298,6.0,7.0,49,0.00,,CLR,0.00,VWS V14.01,2013-04-01 14:20:00,
2013-04-01 10:25:00,60.1,40.4,29.93,WNW,302,5.0,7.0,48,0.00,,CLR,0.00,VWS V14.01,2013-04-01 14:25:00,
2013-04-01 10:30:00,59.8,41.1,29.93,WNW,300,3.0,7.0,50,0.00,,CLR,0.00,VWS V14.01,2013-04-01 14:30:00,
2013-04-01 10:35:00,60.7,42.0,29.93,SSE,166,0.0,1.0,50,0.00,,CLR,0.00,VWS V14.01,2013-04-01 14:35:00,
2013-04-01 10:40:00,61.1,41.3,29.93,SSW,207,2.0,8.0,48,0.00,,CLR,0.00,VWS V14.01,2013-04-01 14:40:00,
2013-04-01 10:45:00,61.0,41.7,29.93,WNW,300,2.0,3.0,49,0.00,,CLR,0.00,VWS V14.01,2013-04-01 14:45:00,
2013-04-01 10:50:00,62.0,43.7,29.93,NNW,328,1.0,1.0,51,0.00,,CLR,0.00,VWS V14.01,2013-04-01 14:50:00,
2013-04-01 10:55:00,63.3,43.3,29.93,WSW,256,1.0,4.0,48,0.00,,CLR,0.00,VWS V14.01,2013-04-01 14:55:00,
2013-04-01 11:00:00,64.2,43.6,29.93,NW,319,0.0,2.0,47,0.00,,CLR,0.00,VWS V14.01,2013-04-01 15:00:00,
2013-04-01 11:05:00,63.7,40.2,29.93,NW,307,4.0,9.0,42,0.00,,CLR,0.00,VWS V14.01,2013-04-01 15:05:00,
2013-04-01 11:10:00,63.4,42.3,29.93,WNW,285,0.0,3.0,46,0.00,,CLR,0.00,VWS V14.01,2013-04-01 15:10:00,
2013-04-01 11:15:00,64.3,41.9,29.93,NW,305,3.0,6.0,44,0.00,,CLR,0.00,VWS V14.01,2013-04-01 15:15:00,
2013-04-01 11:20:00,64.7,40.5,29.93,SSW,200,4.0,4.0,41,0.00,,CLR,0.00,VWS V14.01,2013-04-01 15:20:00,
2013-04-01 11:25:00,65.5,41.8,29.93,NNW,346,3.0,6.0,42,0.00,,CLR,0.00,VWS V14.01,2013-04-01 15:25:00,
2013-04-01 11:30:00,64.5,39.0,29.92,NW,319,1.0,6.0,39,0.00,,CLR,0.00,VWS V14.01,2013-04-01 15:30:00,
2013-04-01 11:35:00,65.2,39.6,29.93,SW,227,2.0,6.0,39,0.00,,CLR,0.00,VWS V14.01,2013-04-01 15:35:00,
2013-04-01 11:40:00,65.1,38.9,29.92,WSW,238,3.0,7.0,38,0.00,,CLR,0.00,VWS V14.01,2013-04-01 15:40:00,
2013-04-01 11:45:00,66.0,42.3,29.92,NW,313,4.0,8.0,42,0.00,,CLR,0.00,VWS V14.01,2013-04-01 15:45:00,
2013-04-01 11:53:00,64.8,37.9,29.93,West,270,2.0,8.0,37,0.00,,CLR,0.00,VWS V14.01,2013-04-01 15:53:00,
2013-04-01 11:58:00,65.7,38.7,29.93,NE,39,2.0,6.0,37,0.00,,CLR,0.00,VWS V14.01,2013-04-01 15:58:00,
2013-04-01 12:03:00,66.3,38.6,29.93,WNW,294,2.0,5.0,36,0.00,,SCT070,0.00,VWS V14.01,2013-04-01 16:03:00,
2013-04-01 12:08:00,66.2,37.8,29.92,WNW,300,6.0,12.0,35,0.00,,SCT070,0.00,VWS V14.01,2013-04-01 16:08:00,
2013-04-01 12:13:00,67.2,39.4,29.93,WSW,239,8.0,8.0,36,0.00,,SCT070,0.00,VWS V14.01,2013-04-01 16:13:00,
2013-04-01 12:18:00,68.0,40.1,29.92,WNW,297,2.0,4.0,36,0.00,,SCT070,0.00,VWS V14.01,2013-04-01 16:18:00,
2013-04-01 12:23:00,68.1,39.4,29.92,NW,312,3.0,7.0,35,0.00,,SCT070,0.00,VWS V14.01,2013-04-01 16:23:00,
2013-04-01 12:28:00,68.4,38.2,29.92,NW,312,5.0,10.0,33,0.00,,SCT070,0.00,VWS V14.01,2013-04-01 16:28:00,
2013-04-01 12:33:00,67.4,37.3,29.92,WNW,300,5.0,10.0,33,0.00,,SCT070,0.00,VWS V14.01,2013-04-01 16:33:00,
2013-04-01 12:38:00,66.7,38.2,29.92,West,276,2.0,5.0,35,0.00,,SCT070,0.00,VWS V14.01,2013-04-01 16:38:00,
2013-04-01 12:43:00,67.2,38.7,29.92,WNW,300,9.0,9.0,35,0.00,,CLR,0.00,VWS V14.01,2013-04-01 16:43:00,
2013-04-01 12:48:00,67.8,39.2,29.92,West,276,2.0,4.0,35,0.00,,CLR,0.00,VWS V14.01,2013-04-01 16:48:00,
2013-04-01 12:53:00,68.0,37.8,29.92,WNW,300,8.0,9.0,33,0.00,,CLR,0.00,VWS V14.01,2013-04-01 16:53:00,
2013-04-01 12:58:00,67.8,37.7,29.92,NW,324,9.0,12.0,33,0.00,,CLR,0.00,VWS V14.01,2013-04-01 16:58:00,
2013-04-01 13:03:00,67.2,37.9,29.92,NW,319,7.0,9.0,34,0.00,,SCT070,0.00,VWS V14.01,2013-04-01 17:03:00,
2013-04-01 13:08:00,66.2,37.0,29.92,WNW,294,2.0,7.0,34,0.00,,SCT070,0.00,VWS V14.01,2013-04-01 17:08:00,
2013-04-01 13:13:00,66.8,39.7,29.91,South,189,2.0,3.0,37,0.00,,SCT070,0.00,VWS V14.01,2013-04-01 17:13:00,
2013-04-01 13:18:00,67.6,39.0,29.91,WNW,284,2.0,8.0,35,0.00,,SCT070,0.00,VWS V14.01,2013-04-01 17:18:00,
2013-04-01 13:23:00,67.5,38.2,29.91,WNW,300,6.0,11.0,34,0.00,,SCT070,0.00,VWS V14.01,2013-04-01 17:23:00,
2013-04-01 13:28:00,66.7,36.7,29.91,NW,313,4.0,9.0,33,0.00,,SCT070,0.00,VWS V14.01,2013-04-01 17:28:00,
2013-04-01 13:33:00,65.9,36.8,29.91,North,353,4.0,11.0,34,0.00,,SCT070,0.00,VWS V14.01,2013-04-01 17:33:00,
2013-04-01 13:38:00,65.6,37.2,29.91,NW,305,7.0,7.0,35,0.00,,SCT070,0.00,VWS V14.01,2013-04-01 17:38:00,
2013-04-01 13:43:00,65.4,37.1,29.91,NW,305,7.0,7.0,35,0.00,,SCT080,0.00,VWS V14.01,2013-04-01 17:43:00,
2013-04-01 13:48:00,65.3,37.7,29.91,NW,305,5.0,10.0,36,0.00,,SCT080,0.00,VWS V14.01,2013-04-01 17:48:00,
2013-04-01 13:53:00,65.1,37.5,29.91,NNW,338,5.0,7.0,36,0.00,,SCT080,0.00,VWS V14.01,2013-04-01 17:53:00,
2013-04-01 13:58:00,65.3,40.4,29.91,WNW,283,5.0,8.0,40,0.00,,SCT080,0.00,VWS V14.01,2013-04-01 17:58:00,
2013-04-01 14:03:00,65.9,38.9,29.91,NW,305,7.0,7.0,37,0.00,,BKN080,0.00,VWS V14.01,2013-04-01 18:03:00,
2013-04-01 14:08:00,66.2,38.5,29.91,NW,322,11.0,11.0,36,0.00,,BKN080,0.00,VWS V14.01,2013-04-01 18:08:00,
2013-04-01 14:13:00,66.2,38.5,29.91,NNE,27,2.0,11.0,36,0.00,,BKN080,0.00,VWS V14.01,2013-04-01 18:13:00,
2013-04-01 14:18:00,66.6,38.8,29.91,NW,326,5.0,16.0,36,0.00,,BKN080,0.00,VWS V14.01,2013-04-01 18:18:00,
2013-04-01 14:23:00,66.7,38.2,29.91,NW,314,5.0,13.0,35,0.00,,BKN090,0.00,VWS V14.01,2013-04-01 18:23:00,
2013-04-01 14:28:00,67.3,39.5,29.91,West,264,1.0,7.0,36,0.00,,BKN090,0.00,VWS V14.01,2013-04-01 18:28:00,
2013-04-01 14:33:00,68.3,36.5,29.91,NW,316,11.0,16.0,31,0.00,,BKN090,0.00,VWS V14.01,2013-04-01 18:33:00,
2013-04-01 14:38:00,67.2,37.2,29.91,NNW,339,4.0,18.0,33,0.00,,BKN090,0.00,VWS V14.01,2013-04-01 18:38:00,
2013-04-01 14:43:00,67.8,39.2,29.91,NNW,339,1.0,2.0,35,0.00,,OVC080,0.00,VWS V14.01,2013-04-01 18:43:00,
2013-04-01 14:48:00,67.6,37.5,29.91,NW,316,13.0,14.0,33,0.00,,OVC080,0.00,VWS V14.01,2013-04-01 18:48:00,
2013-04-01 14:54:00,67.2,40.1,29.91,NW,311,2.0,10.0,37,0.00,,OVC080,0.00,VWS V14.01,2013-04-01 18:54:00,
2013-04-01 14:59:00,68.1,38.7,29.90,NW,304,5.0,7.0,34,0.00,,OVC080,0.00,VWS V14.01,2013-04-01 18:59:00,
2013-04-01 15:04:00,68.1,38.7,29.90,NNW,330,1.0,5.0,34,0.00,,OVC085,0.00,VWS V14.01,2013-04-01 19:04:00,
2013-04-01 15:09:00,68.1,38.7,29.90,WNW,300,6.0,10.0,34,0.00,,OVC085,0.00,VWS V14.01,2013-04-01 19:09:00,
2013-04-01 15:14:00,67.4,37.3,29.91,NW,307,9.0,17.0,33,0.00,,OVC085,0.00,VWS V14.01,2013-04-01 19:14:00,
2013-04-01 15:19:00,67.3,38.7,29.91,SW,226,3.0,4.0,35,0.00,,OVC085,0.00,VWS V14.01,2013-04-01 19:19:00,
2013-04-01 15:24:00,66.3,37.8,29.91,NW,316,4.0,13.0,35,0.00,,OVC080,0.00,VWS V14.01,2013-04-01 19:24:00,
2013-04-01 15:29:00,65.0,37.4,29.91,West,267,7.0,12.0,36,0.00,,OVC080,0.00,VWS V14.01,2013-04-01 19:29:00,
2013-04-01 15:34:00,64.6,39.1,29.91,NW,314,7.0,9.0,39,0.00,,OVC080,0.00,VWS V14.01,2013-04-01 19:34:00,
2013-04-01 15:39:00,64.3,38.2,29.91,West,281,6.0,14.0,38,0.00,,OVC080,0.00,VWS V14.01,2013-04-01 19:39:00,
2013-04-01 15:44:00,64.1,38.7,29.90,SW,214,1.0,3.0,39,0.00,,OVC080,0.00,VWS V14.01,2013-04-01 19:44:00,
2013-04-01 15:49:00,63.9,37.8,29.90,WNW,290,11.0,14.0,38,0.00,,OVC080,0.00,VWS V14.01,2013-04-01 19:49:00,
2013-04-01 15:54:00,63.4,38.0,29.90,NW,307,15.0,19.0,39,0.00,,OVC080,0.00,VWS V14.01,2013-04-01 19:54:00,
2013-04-01 15:59:00,63.3,38.0,29.90,WNW,302,7.0,12.0,39,0.00,,OVC080,0.00,VWS V14.01,2013-04-01 19:59:00,
2013-04-01 16:04:00,63.3,38.6,29.90,WNW,294,10.0,15.0,40,0.00,,OVC070,0.00,VWS V14.01,2013-04-01 20:04:00,
2013-04-01 16:09:00,63.2,38.5,29.90,NW,308,7.0,8.0,40,0.00,,OVC070,0.00,VWS V14.01,2013-04-01 20:09:00,
2013-04-01 16:14:00,63.2,37.9,29.90,NW,318,14.0,16.0,39,0.00,,OVC070,0.00,VWS V14.01,2013-04-01 20:14:00,
2013-04-01 16:19:00,63.2,38.5,29.90,NW,321,7.0,8.0,40,0.00,,OVC070,0.00,VWS V14.01,2013-04-01 20:19:00,
2013-04-01 16:24:00,63.0,38.3,29.90,NW,305,11.0,20.0,40,0.00,,OVC070,0.00,VWS V14.01,2013-04-01 20:24:00,
2013-04-01 16:29:00,62.8,39.4,29.90,NW,322,6.0,8.0,42,0.00,,OVC070,0.00,VWS V14.01,2013-04-01 20:29:00,
2013-04-01 16:34:00,62.8,38.1,29.90,NW,319,8.0,16.0,40,0.00,,OVC070,0.00,VWS V14.01,2013-04-01 20:34:00,
2013-04-01 16:39:00,62.9,38.9,29.90,West,277,9.0,17.0,41,0.00,,OVC070,0.00,VWS V14.01,2013-04-01 20:39:00,
2013-04-01 16:44:00,62.9,38.9,29.90,WNW,298,7.0,9.0,41,0.00,,OVC090,0.00,VWS V14.01,2013-04-01 20:44:00,
2013-04-01 16:49:00,62.8,39.4,29.90,West,267,9.0,12.0,42,0.00,,OVC090,0.00,VWS V14.01,2013-04-01 20:49:00,
2013-04-01 16:54:00,62.8,39.4,29.91,NW,308,5.0,15.0,42,0.00,,OVC090,0.00,VWS V14.01,2013-04-01 20:54:00,
2013-04-01 16:59:00,63.0,39.6,29.91,NW,305,9.0,10.0,42,0.00,,OVC090,0.00,VWS V14.01,2013-04-01 20:59:00,
2013-04-01 17:04:00,63.0,40.2,29.91,NW,318,11.0,15.0,43,0.00,,OVC095,0.00,VWS V14.01,2013-04-01 21:04:00,
2013-04-01 17:09:00,62.6,40.4,29.91,NNW,330,7.0,12.0,44,0.00,,OVC095,0.00,VWS V14.01,2013-04-01 21:09:00,
2013-04-01 17:14:00,61.8,40.8,29.91,NW,314,9.0,14.0,46,0.00,,OVC095,0.00,VWS V14.01,2013-04-01 21:14:00,
2013-04-01 17:19:00,61.4,40.5,29.90,NW,311,13.0,15.0,46,0.00,,OVC095,0.00,VWS V14.01,2013-04-01 21:19:00,
2013-04-01 17:24:00,61.3,40.4,29.90,WNW,295,6.0,9.0,46,0.00,,BKN095,0.00,VWS V14.01,2013-04-01 21:24:00,
2013-04-01 17:29:00,61.4,38.7,29.90,WNW,302,7.0,17.0,43,0.00,,BKN095,0.00,VWS V14.01,2013-04-01 21:29:00,
2013-04-01 17:34:00,61.4,39.3,29.90,NNW,330,1.0,8.0,44,0.00,,BKN095,0.00,VWS V14.01,2013-04-01 21:34:00,
2013-04-01 17:39:00,61.5,40.0,29.90,NW,311,5.0,10.0,45,0.00,,BKN095,0.00,VWS V14.01,2013-04-01 21:39:00,
2013-04-01 17:44:00,61.4,39.3,29.90,WNW,291,4.0,17.0,44,0.00,,BKN085,0.00,VWS V14.01,2013-04-01 21:44:00,
2013-04-01 17:49:00,61.3,39.8,29.90,NW,314,12.0,12.0,45,0.00,,BKN085,0.00,VWS V14.01,2013-04-01 21:49:00,
2013-04-01 17:54:00,61.4,39.9,29.90,WNW,284,8.0,20.0,45,0.00,,BKN085,0.00,VWS V14.01,2013-04-01 21:54:00,
2013-04-01 17:59:00,61.8,40.8,29.90,WNW,297,8.0,10.0,46,0.00,,BKN085,0.00,VWS V14.01,2013-04-01 21:59:00,
2013-04-01 18:04:00,61.7,40.2,29.90,WNW,300,7.0,8.0,45,0.00,,OVC090,0.00,VWS V14.01,2013-04-01 22:04:00,
2013-04-01 18:09:00,61.4,40.5,29.90,NNW,327,5.0,9.0,46,0.00,,OVC090,0.00,VWS V14.01,2013-04-01 22:09:00,
2013-04-01 18:14:00,61.2,40.3,29.90,NW,311,4.0,13.0,46,0.00,,OVC090,0.00,VWS V14.01,2013-04-01 22:14:00,
2013-04-01 18:19:00,61.1,40.2,29.90,NW,316,3.0,9.0,46,0.00,,OVC090,0.00,VWS V14.01,2013-04-01 22:19:00,
2013-04-01 18:24:00,60.9,40.5,29.90,NW,305,11.0,12.0,47,0.00,,OVC080,0.00,VWS V14.01,2013-04-01 22:24:00,
2013-04-01 18:29:00,60.8,40.5,29.90,NW,321,6.0,6.0,47,0.00,,OVC080,0.00,VWS V14.01,2013-04-01 22:29:00,
2013-04-01 18:34:00,60.7,40.4,29.90,West,267,6.0,14.0,47,0.00,,OVC080,0.00,VWS V14.01,2013-04-01 22:34:00,
2013-04-01 18:39:00,60.7,40.9,29.91,WNW,289,5.0,10.0,48,0.00,,OVC080,0.00,VWS V14.01,2013-04-01 22:39:00,
2013-04-01 18:44:00,60.6,39.7,29.91,NW,305,7.0,12.0,46,0.00,,OVC080,0.00,VWS V14.01,2013-04-01 22:44:00,
2013-04-01 18:49:00,60.6,39.7,29.91,NW,322,5.0,9.0,46,0.00,,OVC080,0.00,VWS V14.01,2013-04-01 22:49:00,
2013-04-01 18:54:00,60.6,39.7,29.91,WNW,282,7.0,7.0,46,0.00,,OVC080,0.00,VWS V14.01,2013-04-01 22:54:00,
2013-04-01 18:59:00,60.5,39.6,29.92,West,273,4.0,6.0,46,0.00,,SCT080,0.00,VWS V14.01,2013-04-01 22:59:00,
2013-04-01 19:04:00,60.4,39.5,29.92,NW,316,5.0,7.0,46,0.00,,SCT080,0.00,VWS V14.01,2013-04-01 23:04:00,
2013-04-01 19:09:00,60.2,39.9,29.92,NW,305,2.0,7.0,47,0.00,,SCT080,0.00,VWS V14.01,2013-04-01 23:09:00,
2013-04-01 19:14:00,60.2,39.9,29.92,WNW,283,6.0,8.0,47,0.00,,SCT080,0.00,VWS V14.01,2013-04-01 23:14:00,
2013-04-01 19:19:00,60.1,39.3,29.92,NW,322,4.0,7.0,46,0.00,,SCT080,0.00,VWS V14.01,2013-04-01 23:19:00,
2013-04-01 19:24:00,59.9,39.6,29.92,WNW,290,5.0,7.0,47,0.00,,SCT080,0.00,VWS V14.01,2013-04-01 23:24:00,
2013-04-01 19:29:00,59.7,39.5,29.92,NW,324,3.0,6.0,47,0.00,,SCT080,0.00,VWS V14.01,2013-04-01 23:29:00,
2013-04-01 19:34:00,59.5,39.3,29.92,NW,313,2.0,6.0,47,0.00,,SCT080,0.00,VWS V14.01,2013-04-01 23:34:00,
2013-04-01 19:39:00,59.2,39.5,29.92,WNW,302,3.0,3.0,48,0.00,,SCT080,0.00,VWS V14.01,2013-04-01 23:39:00,
2013-04-01 19:44:00,59.0,39.4,29.92,WNW,291,4.0,6.0,48,0.00,,SCT080,0.00,VWS V14.01,2013-04-01 23:44:00,
2013-04-01 19:49:00,58.6,40.0,29.93,NW,322,0.0,2.0,50,0.00,,SCT080,0.00,VWS V14.01,2013-04-01 23:49:00,
2013-04-01 19:54:00,58.4,39.3,29.93,WNW,295,0.0,1.0,49,0.00,,SCT080,0.00,VWS V14.01,2013-04-01 23:54:00,
2013-04-01 19:59:00,58.1,39.1,29.93,WNW,298,0.0,3.0,49,0.00,,SCT080,0.00,VWS V14.01,2013-04-01 23:59:00,
2013-04-01 20:04:00,57.9,38.3,29.93,NW,311,3.0,4.0,48,0.00,,SCT080,0.00,VWS V14.01,2013-04-02 00:04:00,
2013-04-01 20:09:00,57.7,38.2,29.93,NW,308,2.0,4.0,48,0.00,,SCT080,0.00,VWS V14.01,2013-04-02 00:09:00,
2013-04-01 20:14:00,57.6,37.5,29.93,NW,315,6.0,10.0,47,0.00,,SCT080,0.00,VWS V14.01,2013-04-02 00:14:00,
2013-04-01 20:19:00,57.5,38.0,29.93,NW,308,0.0,1.0,48,0.00,,SCT080,0.00,VWS V14.01,2013-04-02 00:19:00,
2013-04-01 20:24:00,57.2,37.7,29.93,NW,305,0.0,3.0,48,0.00,,BKN080,0.00,VWS V14.01,2013-04-02 00:24:00,
2013-04-01 20:29:00,56.8,37.3,29.93,WSW,250,0.0,1.0,48,0.00,,BKN080,0.00,VWS V14.01,2013-04-02 00:29:00,
2013-04-01 20:34:00,56.4,37.5,29.93,WNW,283,0.0,6.0,49,0.00,,BKN080,0.00,VWS V14.01,2013-04-02 00:34:00,
2013-04-01 20:39:00,56.4,38.0,29.93,WSW,239,0.0,0.0,50,0.00,,BKN080,0.00,VWS V14.01,2013-04-02 00:39:00,
2013-04-01 20:44:00,56.2,37.8,29.93,WSW,238,1.0,2.0,50,0.00,,BKN085,0.00,VWS V14.01,2013-04-02 00:44:00,
2013-04-01 20:49:00,56.1,36.7,29.93,WNW,293,0.0,2.0,48,0.00,,BKN085,0.00,VWS V14.01,2013-04-02 00:49:00,
2013-04-01 20:54:00,55.8,36.9,29.93,NNW,328,0.0,0.0,49,0.00,,BKN085,0.00,VWS V14.01,2013-04-02 00:54:00,
2013-04-01 20:59:00,55.4,36.6,29.93,NW,305,6.0,7.0,49,0.00,,BKN085,0.00,VWS V14.01,2013-04-02 00:59:00,
2013-04-01 21:04:00,55.3,37.0,29.93,WNW,287,1.0,2.0,50,0.00,,BKN080,0.00,VWS V14.01,2013-04-02 01:04:00,
2013-04-01 21:09:00,55.1,36.8,29.94,West,276,1.0,3.0,50,0.00,,BKN080,0.00,VWS V14.01,2013-04-02 01:09:00,
2013-04-01 21:14:00,54.8,37.5,29.94,NW,321,0.0,1.0,52,0.00,,BKN080,0.00,VWS V14.01,2013-04-02 01:14:00,
2013-04-01 21:19:00,54.2,37.9,29.94,SW,226,0.0,0.0,54,0.00,,BKN080,0.00,VWS V14.01,2013-04-02 01:19:00,
2013-04-01 21:24:00,53.5,37.3,29.94,SW,226,0.0,0.0,54,0.00,,OVC070,0.00,VWS V14.01,2013-04-02 01:24:00,
2013-04-01 21:29:00,53.1,36.4,29.94,WNW,291,0.0,1.0,53,0.00,,OVC070,0.00,VWS V14.01,2013-04-02 01:29:00,
2013-04-01 21:34:00,53.4,37.2,29.94,WNW,297,0.0,0.0,54,0.00,,OVC070,0.00,VWS V14.01,2013-04-02 01:34:00,
2013-04-01 21:39:00,53.2,37.0,29.95,WNW,297,1.0,1.0,54,0.00,,OVC070,0.00,VWS V14.01,2013-04-02 01:39:00,
2013-04-01 21:44:00,53.3,37.6,29.95,WNW,302,0.0,1.0,55,0.00,,OVC080,0.00,VWS V14.01,2013-04-02 01:44:00,
2013-04-01 21:49:00,52.8,37.1,29.95,WNW,287,4.0,4.0,55,0.00,,OVC080,0.00,VWS V14.01,2013-04-02 01:49:00,
2013-04-01 21:54:00,53.2,37.0,29.95,NW,312,4.0,5.0,54,0.00,,OVC080,0.00,VWS V14.01,2013-04-02 01:54:00,
2013-04-01 21:59:00,53.8,36.1,29.95,WNW,300,3.0,9.0,51,0.00,,BKN070,0.00,VWS V14.01,2013-04-02 01:59:00,
2013-04-01 22:04:00,55.0,35.2,29.95,WNW,293,8.0,13.0,47,0.00,,BKN070,0.00,VWS V14.01,2013-04-02 02:04:00,
2013-04-01 22:09:00,55.9,35.4,29.95,NNW,340,5.0,14.0,46,0.00,,BKN070,0.00,VWS V14.01,2013-04-02 02:09:00,
2013-04-01 22:14:00,56.3,35.2,29.95,NW,311,8.0,14.0,45,0.00,,BKN070,0.00,VWS V14.01,2013-04-02 02:14:00,
2013-04-01 22:19:00,56.3,35.2,29.96,NW,311,6.0,10.0,45,0.00,,SCT070,0.00,VWS V14.01,2013-04-02 02:19:00,
2013-04-01 22:24:00,56.1,35.6,29.96,WNW,287,3.0,8.0,46,0.00,,SCT070,0.00,VWS V14.01,2013-04-02 02:24:00,
2013-04-01 22:29:00,55.8,35.3,29.96,NW,307,3.0,4.0,46,0.00,,SCT070,0.00,VWS V14.01,2013-04-02 02:29:00,
2013-04-01 22:34:00,55.6,35.7,29.96,NW,305,3.0,3.0,47,0.00,,SCT070,0.00,VWS V14.01,2013-04-02 02:34:00,
2013-04-01 22:39:00,55.3,36.0,29.96,NW,311,1.0,2.0,48,0.00,,SCT070,0.00,VWS V14.01,2013-04-02 02:39:00,
2013-04-01 22:44:00,54.7,35.4,29.96,NNE,21,0.0,1.0,48,0.00,,SCT070,0.00,VWS V14.01,2013-04-02 02:44:00,
2013-04-01 22:49:00,54.3,35.6,29.96,NNE,15,0.0,1.0,49,0.00,,SCT070,0.00,VWS V14.01,2013-04-02 02:49:00,
2013-04-01 22:54:00,53.8,35.6,29.96,ENE,58,0.0,0.0,50,0.00,,SCT070,0.00,VWS V14.01,2013-04-02 02:54:00,
2013-04-01 22:59:00,53.6,35.4,29.97,NW,307,1.0,3.0,50,0.00,,SCT070,0.00,VWS V14.01,2013-04-02 02:59:00,
2013-04-01 23:04:00,53.8,35.6,29.97,NW,318,1.0,3.0,50,0.00,,SCT070,0.00,VWS V14.01,2013-04-02 03:04:00,
2013-04-01 23:09:00,53.6,35.4,29.97,SW,229,2.0,3.0,50,0.00,,SCT070,0.00,VWS V14.01,2013-04-02 03:09:00,
2013-04-01 23:14:00,53.9,35.7,29.97,WNW,295,0.0,0.0,50,0.00,,SCT070,0.00,VWS V14.01,2013-04-02 03:14:00,
2013-04-01 23:19:00,53.6,35.4,29.97,NNW,333,3.0,3.0,50,0.00,,SCT070,0.00,VWS V14.01,2013-04-02 03:19:00,
2013-04-01 23:24:00,53.6,35.4,29.97,NW,308,1.0,1.0,50,0.00,,SCT070,0.00,VWS V14.01,2013-04-02 03:24:00,
2013-04-01 23:29:00,53.6,35.4,29.97,NW,322,2.0,2.0,50,0.00,,SCT070,0.00,VWS V14.01,2013-04-02 03:29:00,
2013-04-01 23:34:00,53.4,35.2,29.97,WSW,257,0.0,0.0,50,0.00,,SCT070,0.00,VWS V14.01,2013-04-02 03:34:00,
2013-04-01 23:39:00,52.8,35.7,29.97,ESE,117,1.0,2.0,52,0.00,,CLR,0.00,VWS V14.01,2013-04-02 03:39:00,
2013-04-01 23:44:00,51.9,35.3,29.97,SSE,158,2.0,2.0,53,0.00,,CLR,0.00,VWS V14.01,2013-04-02 03:44:00,
2013-04-01 23:49:00,51.1,35.0,29.98,SE,134,2.0,3.0,54,0.00,,CLR,0.00,VWS V14.01,2013-04-02 03:49:00,
2013-04-01 23:54:00,50.8,35.2,29.97,North,6,0.0,4.0,55,0.00,,CLR,0.00,VWS V14.01,2013-04-02 03:54:00,
2013-04-01 23:59:00,51.2,34.2,29.97,SW,221,0.0,1.0,52,0.00,,CLR,0.00,VWS V14.01,2013-04-02 03:59:00,